sensor_id;sensor_type;location;lat;lon;timestamp;P1;durP1;ratioP1;P2;durP2;ratioP2
9080;SDS011;13509;50.760;6.080;2022-12-29T00:02:16;0.60;;;0.60;;
9080;SDS011;13509;50.760;6.080;2022-12-29T00:04:44;0.60;;;0.60;;
9080;SDS011;13509;50.760;6.080;2022-12-29T00:07:14;0.60;;;0.60;;
9080;SDS011;13509;50.760;6.080;2022-12-29T00:09:43;0.53;;;0.53;;
9080;SDS011;13509;50.760;6.080;2022-12-29T00:12:11;1.17;;;0.60;;
9080;SDS011;13509;50.760;6.080;2022-12-29T00:14:39;0.50;;;0.50;;
9080;SDS011;13509;50.760;6.080;2022-12-29T00:17:25;0.50;;;0.50;;
9080;SDS011;13509;50.760;6.080;2022-12-29T00:19:53;0.60;;;0.60;;
9080;SDS011;13509;50.760;6.080;2022-12-29T00:22:41;0.50;;;0.50;;
9080;SDS011;13509;50.760;6.080;2022-12-29T00:25:29;0.50;;;0.50;;
9080;SDS011;13509;50.760;6.080;2022-12-29T00:28:15;0.83;;;0.50;;
9080;SDS011;13509;50.760;6.080;2022-12-29T00:31:01;1.77;;;0.90;;
9080;SDS011;13509;50.760;6.080;2022-12-29T00:33:47;0.93;;;0.80;;
9080;SDS011;13509;50.760;6.080;2022-12-29T00:36:34;0.57;;;0.57;;
9080;SDS011;13509;50.760;6.080;2022-12-29T00:39:05;0.90;;;0.63;;
9080;SDS011;13509;50.760;6.080;2022-12-29T00:41:52;0.50;;;0.50;;
9080;SDS011;13509;50.760;6.080;2022-12-29T00:44:38;0.67;;;0.67;;
9080;SDS011;13509;50.760;6.080;2022-12-29T00:47:06;0.50;;;0.50;;
9080;SDS011;13509;50.760;6.080;2022-12-29T00:49:34;0.80;;;0.70;;
9080;SDS011;13509;50.760;6.080;2022-12-29T00:52:03;2.67;;;0.60;;
9080;SDS011;13509;50.760;6.080;2022-12-29T00:54:34;0.67;;;0.60;;
9080;SDS011;13509;50.760;6.080;2022-12-29T00:57:03;0.50;;;0.50;;
9080;SDS011;13509;50.760;6.080;2022-12-29T00:59:32;0.73;;;0.73;;
9080;SDS011;13509;50.760;6.080;2022-12-29T01:02:02;0.70;;;0.70;;
9080;SDS011;13509;50.760;6.080;2022-12-29T01:04:30;0.80;;;0.80;;
9080;SDS011;13509;50.760;6.080;2022-12-29T01:06:59;0.70;;;0.70;;
9080;SDS011;13509;50.760;6.080;2022-12-29T01:09:27;1.80;;;0.80;;
9080;SDS011;13509;50.760;6.080;2022-12-29T01:12:13;0.70;;;0.70;;
9080;SDS011;13509;50.760;6.080;2022-12-29T01:14:43;1.27;;;0.90;;
9080;SDS011;13509;50.760;6.080;2022-12-29T01:17:11;0.93;;;0.93;;
9080;SDS011;13509;50.760;6.080;2022-12-29T01:19:39;0.80;;;0.80;;
9080;SDS011;13509;50.760;6.080;2022-12-29T01:22:07;1.00;;;1.00;;
9080;SDS011;13509;50.760;6.080;2022-12-29T01:24:36;1.70;;;1.00;;
9080;SDS011;13509;50.760;6.080;2022-12-29T01:27:04;2.30;;;1.07;;
9080;SDS011;13509;50.760;6.080;2022-12-29T01:29:33;3.03;;;0.90;;
9080;SDS011;13509;50.760;6.080;2022-12-29T01:32:01;2.97;;;1.03;;
9080;SDS011;13509;50.760;6.080;2022-12-29T01:34:30;0.90;;;0.90;;
9080;SDS011;13509;50.760;6.080;2022-12-29T01:36:58;1.07;;;0.97;;
9080;SDS011;13509;50.760;6.080;2022-12-29T01:39:26;1.43;;;1.17;;
9080;SDS011;13509;50.760;6.080;2022-12-29T01:41:54;4.57;;;1.20;;
9080;SDS011;13509;50.760;6.080;2022-12-29T01:44:41;1.53;;;1.10;;
9080;SDS011;13509;50.760;6.080;2022-12-29T01:47:15;1.53;;;1.03;;
9080;SDS011;13509;50.760;6.080;2022-12-29T01:49:46;1.00;;;1.00;;
9080;SDS011;13509;50.760;6.080;2022-12-29T01:52:14;2.73;;;0.93;;
9080;SDS011;13509;50.760;6.080;2022-12-29T01:54:44;4.37;;;1.23;;
9080;SDS011;13509;50.760;6.080;2022-12-29T01:57:16;2.03;;;1.10;;
9080;SDS011;13509;50.760;6.080;2022-12-29T01:59:48;1.67;;;1.20;;
9080;SDS011;13509;50.760;6.080;2022-12-29T02:02:17;2.23;;;1.40;;
9080;SDS011;13509;50.760;6.080;2022-12-29T02:04:45;1.37;;;1.03;;
9080;SDS011;13509;50.760;6.080;2022-12-29T02:07:15;3.33;;;1.00;;
9080;SDS011;13509;50.760;6.080;2022-12-29T02:09:46;1.57;;;1.10;;
9080;SDS011;13509;50.760;6.080;2022-12-29T02:12:14;6.70;;;1.47;;
9080;SDS011;13509;50.760;6.080;2022-12-29T02:14:43;1.00;;;0.93;;
9080;SDS011;13509;50.760;6.080;2022-12-29T02:17:15;2.07;;;0.90;;
9080;SDS011;13509;50.760;6.080;2022-12-29T02:19:54;1.63;;;0.90;;
9080;SDS011;13509;50.760;6.080;2022-12-29T02:22:29;1.17;;;1.00;;
9080;SDS011;13509;50.760;6.080;2022-12-29T02:25:10;2.67;;;0.87;;
9080;SDS011;13509;50.760;6.080;2022-12-29T02:27:51;1.10;;;1.00;;
9080;SDS011;13509;50.760;6.080;2022-12-29T02:33:17;1.00;;;0.90;;
9080;SDS011;13509;50.760;6.080;2022-12-29T02:35:50;1.00;;;0.70;;
9080;SDS011;13509;50.760;6.080;2022-12-29T02:38:20;1.20;;;0.90;;
9080;SDS011;13509;50.760;6.080;2022-12-29T02:40:53;1.50;;;0.93;;
9080;SDS011;13509;50.760;6.080;2022-12-29T02:43:24;1.80;;;0.80;;
9080;SDS011;13509;50.760;6.080;2022-12-29T02:45:54;1.30;;;0.90;;
9080;SDS011;13509;50.760;6.080;2022-12-29T02:48:26;1.30;;;0.70;;
9080;SDS011;13509;50.760;6.080;2022-12-29T02:50:57;1.00;;;0.97;;
9080;SDS011;13509;50.760;6.080;2022-12-29T02:53:27;0.77;;;0.60;;
9080;SDS011;13509;50.760;6.080;2022-12-29T02:56:14;1.20;;;1.10;;
9080;SDS011;13509;50.760;6.080;2022-12-29T02:58:43;1.30;;;0.73;;
9080;SDS011;13509;50.760;6.080;2022-12-29T03:01:17;0.83;;;0.83;;
9080;SDS011;13509;50.760;6.080;2022-12-29T03:03:50;0.67;;;0.67;;
9080;SDS011;13509;50.760;6.080;2022-12-29T03:06:27;0.73;;;0.73;;
9080;SDS011;13509;50.760;6.080;2022-12-29T03:08:59;0.83;;;0.60;;
9080;SDS011;13509;50.760;6.080;2022-12-29T03:11:30;0.87;;;0.80;;
9080;SDS011;13509;50.760;6.080;2022-12-29T03:14:26;0.70;;;0.70;;
9080;SDS011;13509;50.760;6.080;2022-12-29T03:17:14;1.30;;;0.70;;
9080;SDS011;13509;50.760;6.080;2022-12-29T03:19:48;0.70;;;0.70;;
9080;SDS011;13509;50.760;6.080;2022-12-29T03:22:19;0.90;;;0.70;;
9080;SDS011;13509;50.760;6.080;2022-12-29T03:24:57;0.90;;;0.90;;
9080;SDS011;13509;50.760;6.080;2022-12-29T03:27:28;1.00;;;0.90;;
9080;SDS011;13509;50.760;6.080;2022-12-29T03:29:57;0.93;;;0.87;;
9080;SDS011;13509;50.760;6.080;2022-12-29T03:32:27;1.70;;;1.10;;
9080;SDS011;13509;50.760;6.080;2022-12-29T03:34:58;3.60;;;0.90;;
9080;SDS011;13509;50.760;6.080;2022-12-29T03:37:28;2.17;;;0.70;;
9080;SDS011;13509;50.760;6.080;2022-12-29T03:39:59;0.80;;;0.80;;
9080;SDS011;13509;50.760;6.080;2022-12-29T03:42:27;1.87;;;1.00;;
9080;SDS011;13509;50.760;6.080;2022-12-29T03:44:57;1.50;;;0.83;;
9080;SDS011;13509;50.760;6.080;2022-12-29T03:47:26;2.43;;;0.83;;
9080;SDS011;13509;50.760;6.080;2022-12-29T03:49:54;1.23;;;0.90;;
9080;SDS011;13509;50.760;6.080;2022-12-29T03:52:23;2.03;;;0.90;;
9080;SDS011;13509;50.760;6.080;2022-12-29T03:54:51;3.77;;;1.00;;
9080;SDS011;13509;50.760;6.080;2022-12-29T03:57:20;2.33;;;1.20;;
9080;SDS011;13509;50.760;6.080;2022-12-29T03:59:48;0.90;;;0.90;;
9080;SDS011;13509;50.760;6.080;2022-12-29T04:02:16;1.67;;;0.90;;
9080;SDS011;13509;50.760;6.080;2022-12-29T04:04:44;1.23;;;1.10;;
9080;SDS011;13509;50.760;6.080;2022-12-29T04:07:13;2.37;;;0.80;;
9080;SDS011;13509;50.760;6.080;2022-12-29T04:09:42;0.90;;;0.90;;
9080;SDS011;13509;50.760;6.080;2022-12-29T04:12:10;0.73;;;0.73;;
9080;SDS011;13509;50.760;6.080;2022-12-29T04:14:40;1.70;;;0.80;;
9080;SDS011;13509;50.760;6.080;2022-12-29T04:17:08;1.43;;;1.13;;
9080;SDS011;13509;50.760;6.080;2022-12-29T04:19:36;1.30;;;0.90;;
9080;SDS011;13509;50.760;6.080;2022-12-29T04:22:04;3.03;;;1.00;;
9080;SDS011;13509;50.760;6.080;2022-12-29T04:24:32;1.63;;;1.00;;
9080;SDS011;13509;50.760;6.080;2022-12-29T04:27:02;1.27;;;1.07;;
9080;SDS011;13509;50.760;6.080;2022-12-29T04:29:30;0.80;;;0.80;;
9080;SDS011;13509;50.760;6.080;2022-12-29T04:31:59;2.03;;;0.90;;
9080;SDS011;13509;50.760;6.080;2022-12-29T04:34:27;3.20;;;1.10;;
9080;SDS011;13509;50.760;6.080;2022-12-29T04:36:55;1.37;;;0.97;;
9080;SDS011;13509;50.760;6.080;2022-12-29T04:39:23;1.60;;;0.97;;
9080;SDS011;13509;50.760;6.080;2022-12-29T04:41:51;1.33;;;0.90;;
9080;SDS011;13509;50.760;6.080;2022-12-29T04:44:21;1.73;;;0.97;;
9080;SDS011;13509;50.760;6.080;2022-12-29T04:46:49;2.97;;;1.33;;
9080;SDS011;13509;50.760;6.080;2022-12-29T04:49:18;0.70;;;0.70;;
9080;SDS011;13509;50.760;6.080;2022-12-29T04:51:46;1.40;;;0.90;;
9080;SDS011;13509;50.760;6.080;2022-12-29T04:54:14;1.77;;;0.93;;
9080;SDS011;13509;50.760;6.080;2022-12-29T04:56:42;2.40;;;1.13;;
9080;SDS011;13509;50.760;6.080;2022-12-29T04:59:10;1.37;;;1.00;;
9080;SDS011;13509;50.760;6.080;2022-12-29T05:01:41;3.20;;;1.10;;
9080;SDS011;13509;50.760;6.080;2022-12-29T05:04:09;2.03;;;0.97;;
9080;SDS011;13509;50.760;6.080;2022-12-29T05:06:37;2.10;;;1.00;;
9080;SDS011;13509;50.760;6.080;2022-12-29T05:09:05;1.23;;;0.80;;
9080;SDS011;13509;50.760;6.080;2022-12-29T05:11:34;1.10;;;1.00;;
9080;SDS011;13509;50.760;6.080;2022-12-29T05:14:02;0.80;;;0.80;;
9080;SDS011;13509;50.760;6.080;2022-12-29T05:16:30;2.43;;;0.90;;
9080;SDS011;13509;50.760;6.080;2022-12-29T05:19:00;1.27;;;0.87;;
9080;SDS011;13509;50.760;6.080;2022-12-29T05:21:28;1.40;;;0.60;;
9080;SDS011;13509;50.760;6.080;2022-12-29T05:23:56;1.50;;;0.60;;
9080;SDS011;13509;50.760;6.080;2022-12-29T05:26:24;1.10;;;0.70;;
9080;SDS011;13509;50.760;6.080;2022-12-29T05:28:53;1.77;;;0.80;;
9080;SDS011;13509;50.760;6.080;2022-12-29T05:31:21;3.50;;;0.90;;
9080;SDS011;13509;50.760;6.080;2022-12-29T05:33:49;2.10;;;0.70;;
9080;SDS011;13509;50.760;6.080;2022-12-29T05:36:19;2.23;;;1.70;;
9080;SDS011;13509;50.760;6.080;2022-12-29T05:38:47;1.67;;;0.80;;
9080;SDS011;13509;50.760;6.080;2022-12-29T05:41:15;2.40;;;1.00;;
9080;SDS011;13509;50.760;6.080;2022-12-29T05:43:43;1.00;;;0.80;;
9080;SDS011;13509;50.760;6.080;2022-12-29T05:46:11;1.53;;;0.90;;
9080;SDS011;13509;50.760;6.080;2022-12-29T05:48:40;2.13;;;0.90;;
9080;SDS011;13509;50.760;6.080;2022-12-29T05:51:08;1.57;;;0.73;;
9080;SDS011;13509;50.760;6.080;2022-12-29T05:53:37;1.77;;;0.80;;
9080;SDS011;13509;50.760;6.080;2022-12-29T05:56:06;2.60;;;1.00;;
9080;SDS011;13509;50.760;6.080;2022-12-29T05:58:34;5.07;;;0.90;;
9080;SDS011;13509;50.760;6.080;2022-12-29T06:01:02;1.97;;;1.00;;
9080;SDS011;13509;50.760;6.080;2022-12-29T06:03:30;1.70;;;0.70;;
9080;SDS011;13509;50.760;6.080;2022-12-29T06:05:58;4.20;;;1.13;;
9080;SDS011;13509;50.760;6.080;2022-12-29T06:08:27;2.70;;;0.90;;
9080;SDS011;13509;50.760;6.080;2022-12-29T06:10:56;2.50;;;0.70;;
9080;SDS011;13509;50.760;6.080;2022-12-29T06:13:24;1.83;;;0.90;;
9080;SDS011;13509;50.760;6.080;2022-12-29T06:15:53;1.03;;;0.93;;
9080;SDS011;13509;50.760;6.080;2022-12-29T06:18:21;1.93;;;0.90;;
9080;SDS011;13509;50.760;6.080;2022-12-29T06:20:49;1.60;;;0.90;;
9080;SDS011;13509;50.760;6.080;2022-12-29T06:23:18;2.47;;;1.07;;
9080;SDS011;13509;50.760;6.080;2022-12-29T06:25:46;2.13;;;0.90;;
9080;SDS011;13509;50.760;6.080;2022-12-29T06:28:16;1.33;;;0.83;;
9080;SDS011;13509;50.760;6.080;2022-12-29T06:30:45;2.37;;;0.80;;
9080;SDS011;13509;50.760;6.080;2022-12-29T06:33:14;1.67;;;0.90;;
9080;SDS011;13509;50.760;6.080;2022-12-29T06:35:42;2.57;;;0.90;;
9080;SDS011;13509;50.760;6.080;2022-12-29T06:38:12;2.50;;;1.20;;
9080;SDS011;13509;50.760;6.080;2022-12-29T06:40:41;3.73;;;1.10;;
9080;SDS011;13509;50.760;6.080;2022-12-29T06:43:11;1.93;;;1.00;;
9080;SDS011;13509;50.760;6.080;2022-12-29T06:45:40;4.50;;;1.07;;
9080;SDS011;13509;50.760;6.080;2022-12-29T06:48:08;1.57;;;1.20;;
9080;SDS011;13509;50.760;6.080;2022-12-29T06:50:37;1.70;;;0.93;;
9080;SDS011;13509;50.760;6.080;2022-12-29T06:53:05;2.10;;;0.97;;
9080;SDS011;13509;50.760;6.080;2022-12-29T06:55:33;1.43;;;0.90;;
9080;SDS011;13509;50.760;6.080;2022-12-29T06:58:01;3.97;;;1.03;;
9080;SDS011;13509;50.760;6.080;2022-12-29T07:00:29;3.13;;;1.10;;
9080;SDS011;13509;50.760;6.080;2022-12-29T07:02:59;2.83;;;1.10;;
9080;SDS011;13509;50.760;6.080;2022-12-29T07:05:28;1.00;;;0.70;;
9080;SDS011;13509;50.760;6.080;2022-12-29T07:07:57;2.90;;;1.10;;
9080;SDS011;13509;50.760;6.080;2022-12-29T07:10:26;1.53;;;0.80;;
9080;SDS011;13509;50.760;6.080;2022-12-29T07:12:54;1.73;;;0.90;;
9080;SDS011;13509;50.760;6.080;2022-12-29T07:15:22;2.57;;;0.93;;
9080;SDS011;13509;50.760;6.080;2022-12-29T07:17:51;2.83;;;0.93;;
9080;SDS011;13509;50.760;6.080;2022-12-29T07:20:20;3.17;;;1.30;;
9080;SDS011;13509;50.760;6.080;2022-12-29T07:22:52;2.97;;;0.97;;
9080;SDS011;13509;50.760;6.080;2022-12-29T07:25:20;3.83;;;0.87;;
9080;SDS011;13509;50.760;6.080;2022-12-29T07:27:49;1.80;;;0.90;;
9080;SDS011;13509;50.760;6.080;2022-12-29T07:30:17;1.50;;;1.10;;
9080;SDS011;13509;50.760;6.080;2022-12-29T07:32:45;2.93;;;1.00;;
9080;SDS011;13509;50.760;6.080;2022-12-29T07:35:13;4.07;;;1.17;;
9080;SDS011;13509;50.760;6.080;2022-12-29T07:37:44;2.07;;;0.90;;
9080;SDS011;13509;50.760;6.080;2022-12-29T07:40:13;4.57;;;1.30;;
9080;SDS011;13509;50.760;6.080;2022-12-29T07:42:41;6.63;;;1.30;;
9080;SDS011;13509;50.760;6.080;2022-12-29T07:45:10;4.40;;;1.27;;
9080;SDS011;13509;50.760;6.080;2022-12-29T07:47:38;5.00;;;1.50;;
9080;SDS011;13509;50.760;6.080;2022-12-29T07:50:06;3.50;;;1.23;;
9080;SDS011;13509;50.760;6.080;2022-12-29T07:52:35;6.00;;;1.43;;
9080;SDS011;13509;50.760;6.080;2022-12-29T07:55:05;3.37;;;1.30;;
9080;SDS011;13509;50.760;6.080;2022-12-29T07:57:33;8.03;;;2.13;;
9080;SDS011;13509;50.760;6.080;2022-12-29T08:00:02;3.47;;;1.20;;
9080;SDS011;13509;50.760;6.080;2022-12-29T08:02:30;3.70;;;1.13;;
9080;SDS011;13509;50.760;6.080;2022-12-29T08:04:59;3.87;;;1.33;;
9080;SDS011;13509;50.760;6.080;2022-12-29T08:07:27;5.67;;;1.70;;
9080;SDS011;13509;50.760;6.080;2022-12-29T08:09:55;5.87;;;1.53;;
9080;SDS011;13509;50.760;6.080;2022-12-29T08:12:25;4.43;;;1.10;;
9080;SDS011;13509;50.760;6.080;2022-12-29T08:14:53;3.60;;;1.20;;
9080;SDS011;13509;50.760;6.080;2022-12-29T08:17:21;5.23;;;1.20;;
9080;SDS011;13509;50.760;6.080;2022-12-29T08:19:49;1.77;;;1.10;;
9080;SDS011;13509;50.760;6.080;2022-12-29T08:22:18;4.67;;;1.23;;
9080;SDS011;13509;50.760;6.080;2022-12-29T08:24:46;3.10;;;1.20;;
9080;SDS011;13509;50.760;6.080;2022-12-29T08:27:14;3.57;;;1.43;;
9080;SDS011;13509;50.760;6.080;2022-12-29T08:29:47;3.17;;;1.30;;
9080;SDS011;13509;50.760;6.080;2022-12-29T08:32:15;4.57;;;1.43;;
9080;SDS011;13509;50.760;6.080;2022-12-29T08:34:44;7.63;;;1.37;;
9080;SDS011;13509;50.760;6.080;2022-12-29T08:37:12;4.60;;;1.17;;
9080;SDS011;13509;50.760;6.080;2022-12-29T08:39:40;8.27;;;1.53;;
9080;SDS011;13509;50.760;6.080;2022-12-29T08:42:08;4.03;;;1.57;;
9080;SDS011;13509;50.760;6.080;2022-12-29T08:44:36;5.13;;;1.30;;
9080;SDS011;13509;50.760;6.080;2022-12-29T08:47:06;6.07;;;1.10;;
9080;SDS011;13509;50.760;6.080;2022-12-29T08:49:34;6.37;;;1.93;;
9080;SDS011;13509;50.760;6.080;2022-12-29T08:52:03;6.10;;;1.43;;
9080;SDS011;13509;50.760;6.080;2022-12-29T08:54:31;7.80;;;1.67;;
9080;SDS011;13509;50.760;6.080;2022-12-29T08:56:59;5.70;;;1.37;;
9080;SDS011;13509;50.760;6.080;2022-12-29T08:59:27;4.17;;;1.37;;
9080;SDS011;13509;50.760;6.080;2022-12-29T09:01:55;3.43;;;1.20;;
9080;SDS011;13509;50.760;6.080;2022-12-29T09:04:25;10.23;;;1.60;;
9080;SDS011;13509;50.760;6.080;2022-12-29T09:06:53;6.43;;;1.30;;
9080;SDS011;13509;50.760;6.080;2022-12-29T09:09:22;5.00;;;2.00;;
9080;SDS011;13509;50.760;6.080;2022-12-29T09:11:50;4.77;;;1.60;;
9080;SDS011;13509;50.760;6.080;2022-12-29T09:14:18;5.83;;;2.10;;
9080;SDS011;13509;50.760;6.080;2022-12-29T09:16:47;4.60;;;1.47;;
9080;SDS011;13509;50.760;6.080;2022-12-29T09:19:34;8.60;;;1.50;;
9080;SDS011;13509;50.760;6.080;2022-12-29T09:22:02;4.40;;;1.40;;
9080;SDS011;13509;50.760;6.080;2022-12-29T09:24:30;4.53;;;1.10;;
9080;SDS011;13509;50.760;6.080;2022-12-29T09:26:59;5.00;;;1.30;;
9080;SDS011;13509;50.760;6.080;2022-12-29T09:29:27;7.57;;;1.47;;
9080;SDS011;13509;50.760;6.080;2022-12-29T09:31:55;6.67;;;1.33;;
9080;SDS011;13509;50.760;6.080;2022-12-29T09:34:23;6.30;;;1.70;;
9080;SDS011;13509;50.760;6.080;2022-12-29T09:36:53;8.23;;;1.60;;
9080;SDS011;13509;50.760;6.080;2022-12-29T09:39:22;4.33;;;1.47;;
9080;SDS011;13509;50.760;6.080;2022-12-29T09:41:52;4.83;;;1.50;;
9080;SDS011;13509;50.760;6.080;2022-12-29T09:44:27;9.57;;;2.00;;
9080;SDS011;13509;50.760;6.080;2022-12-29T09:46:58;8.63;;;1.73;;
9080;SDS011;13509;50.760;6.080;2022-12-29T09:49:28;4.80;;;1.60;;
9080;SDS011;13509;50.760;6.080;2022-12-29T09:52:02;6.37;;;1.40;;
9080;SDS011;13509;50.760;6.080;2022-12-29T09:54:41;6.33;;;1.30;;
9080;SDS011;13509;50.760;6.080;2022-12-29T09:57:24;6.27;;;1.50;;
9080;SDS011;13509;50.760;6.080;2022-12-29T09:59:54;8.30;;;1.80;;
9080;SDS011;13509;50.760;6.080;2022-12-29T10:02:28;5.90;;;1.83;;
9080;SDS011;13509;50.760;6.080;2022-12-29T10:04:57;9.37;;;1.57;;
9080;SDS011;13509;50.760;6.080;2022-12-29T10:07:36;4.40;;;1.30;;
9080;SDS011;13509;50.760;6.080;2022-12-29T10:10:11;7.80;;;1.80;;
9080;SDS011;13509;50.760;6.080;2022-12-29T10:12:47;7.20;;;1.40;;
9080;SDS011;13509;50.760;6.080;2022-12-29T10:15:24;3.07;;;1.40;;
9080;SDS011;13509;50.760;6.080;2022-12-29T10:17:55;6.90;;;1.70;;
9080;SDS011;13509;50.760;6.080;2022-12-29T10:20:27;7.43;;;1.80;;
9080;SDS011;13509;50.760;6.080;2022-12-29T10:23:02;5.40;;;1.70;;
9080;SDS011;13509;50.760;6.080;2022-12-29T10:25:34;6.20;;;1.60;;
9080;SDS011;13509;50.760;6.080;2022-12-29T10:28:04;4.93;;;1.63;;
9080;SDS011;13509;50.760;6.080;2022-12-29T10:30:34;4.80;;;1.50;;
9080;SDS011;13509;50.760;6.080;2022-12-29T10:33:03;9.03;;;1.73;;
9080;SDS011;13509;50.760;6.080;2022-12-29T10:35:32;4.00;;;1.20;;
9080;SDS011;13509;50.760;6.080;2022-12-29T10:38:11;4.90;;;1.60;;
9080;SDS011;13509;50.760;6.080;2022-12-29T10:40:42;9.57;;;1.67;;
9080;SDS011;13509;50.760;6.080;2022-12-29T10:43:15;5.47;;;1.33;;
9080;SDS011;13509;50.760;6.080;2022-12-29T10:45:46;7.03;;;1.60;;
9080;SDS011;13509;50.760;6.080;2022-12-29T10:48:18;6.60;;;1.43;;
9080;SDS011;13509;50.760;6.080;2022-12-29T10:50:54;7.73;;;1.57;;
9080;SDS011;13509;50.760;6.080;2022-12-29T10:53:30;6.07;;;1.60;;
9080;SDS011;13509;50.760;6.080;2022-12-29T10:56:01;9.03;;;1.73;;
9080;SDS011;13509;50.760;6.080;2022-12-29T10:58:31;2.37;;;1.20;;
9080;SDS011;13509;50.760;6.080;2022-12-29T11:00:59;7.60;;;1.60;;
9080;SDS011;13509;50.760;6.080;2022-12-29T11:03:34;8.27;;;2.33;;
9080;SDS011;13509;50.760;6.080;2022-12-29T11:06:07;3.90;;;1.30;;
9080;SDS011;13509;50.760;6.080;2022-12-29T11:08:38;8.47;;;1.67;;
9080;SDS011;13509;50.760;6.080;2022-12-29T11:11:08;5.97;;;1.60;;
9080;SDS011;13509;50.760;6.080;2022-12-29T11:13:46;4.83;;;1.40;;
9080;SDS011;13509;50.760;6.080;2022-12-29T11:16:15;5.70;;;1.53;;
9080;SDS011;13509;50.760;6.080;2022-12-29T11:18:54;8.73;;;1.67;;
9080;SDS011;13509;50.760;6.080;2022-12-29T11:21:27;6.87;;;1.40;;
9080;SDS011;13509;50.760;6.080;2022-12-29T11:23:57;6.13;;;1.33;;
9080;SDS011;13509;50.760;6.080;2022-12-29T11:26:26;4.83;;;1.43;;
9080;SDS011;13509;50.760;6.080;2022-12-29T11:29:16;7.97;;;1.50;;
9080;SDS011;13509;50.760;6.080;2022-12-29T11:31:45;7.17;;;1.60;;
9080;SDS011;13509;50.760;6.080;2022-12-29T11:34:18;7.57;;;1.87;;
9080;SDS011;13509;50.760;6.080;2022-12-29T11:36:46;3.70;;;1.40;;
9080;SDS011;13509;50.760;6.080;2022-12-29T11:39:28;4.83;;;1.60;;
9080;SDS011;13509;50.760;6.080;2022-12-29T11:41:56;4.47;;;1.90;;
9080;SDS011;13509;50.760;6.080;2022-12-29T11:44:25;8.30;;;1.90;;
9080;SDS011;13509;50.760;6.080;2022-12-29T11:46:54;4.33;;;1.50;;
9080;SDS011;13509;50.760;6.080;2022-12-29T11:49:23;7.33;;;1.53;;
9080;SDS011;13509;50.760;6.080;2022-12-29T11:51:52;6.70;;;2.77;;
9080;SDS011;13509;50.760;6.080;2022-12-29T11:54:23;5.67;;;1.27;;
9080;SDS011;13509;50.760;6.080;2022-12-29T11:56:54;5.30;;;1.47;;
9080;SDS011;13509;50.760;6.080;2022-12-29T11:59:34;5.67;;;1.40;;
9080;SDS011;13509;50.760;6.080;2022-12-29T12:02:11;7.40;;;1.50;;
9080;SDS011;13509;50.760;6.080;2022-12-29T12:04:41;11.87;;;1.83;;
9080;SDS011;13509;50.760;6.080;2022-12-29T12:07:10;7.03;;;1.40;;
9080;SDS011;13509;50.760;6.080;2022-12-29T12:09:40;6.87;;;1.77;;
9080;SDS011;13509;50.760;6.080;2022-12-29T12:12:15;7.97;;;1.63;;
9080;SDS011;13509;50.760;6.080;2022-12-29T12:14:48;6.07;;;1.90;;
9080;SDS011;13509;50.760;6.080;2022-12-29T12:17:21;7.20;;;1.60;;
9080;SDS011;13509;50.760;6.080;2022-12-29T12:19:53;6.37;;;1.57;;
9080;SDS011;13509;50.760;6.080;2022-12-29T12:22:27;7.70;;;1.67;;
9080;SDS011;13509;50.760;6.080;2022-12-29T12:24:57;6.30;;;1.90;;
9080;SDS011;13509;50.760;6.080;2022-12-29T12:27:30;5.00;;;1.53;;
9080;SDS011;13509;50.760;6.080;2022-12-29T12:30:03;8.20;;;1.67;;
9080;SDS011;13509;50.760;6.080;2022-12-29T12:32:34;4.20;;;1.33;;
9080;SDS011;13509;50.760;6.080;2022-12-29T12:35:10;8.10;;;1.73;;
9080;SDS011;13509;50.760;6.080;2022-12-29T12:37:49;7.20;;;1.47;;
9080;SDS011;13509;50.760;6.080;2022-12-29T12:40:25;5.60;;;1.70;;
9080;SDS011;13509;50.760;6.080;2022-12-29T12:43:01;7.07;;;1.70;;
9080;SDS011;13509;50.760;6.080;2022-12-29T12:45:38;3.27;;;1.20;;
9080;SDS011;13509;50.760;6.080;2022-12-29T12:48:15;6.03;;;1.50;;
9080;SDS011;13509;50.760;6.080;2022-12-29T12:50:51;5.30;;;1.50;;
9080;SDS011;13509;50.760;6.080;2022-12-29T12:53:26;8.83;;;2.07;;
9080;SDS011;13509;50.760;6.080;2022-12-29T12:56:03;8.93;;;1.50;;
9080;SDS011;13509;50.760;6.080;2022-12-29T12:58:39;5.80;;;1.60;;
9080;SDS011;13509;50.760;6.080;2022-12-29T13:01:14;5.80;;;1.83;;
9080;SDS011;13509;50.760;6.080;2022-12-29T13:03:49;7.40;;;1.70;;
9080;SDS011;13509;50.760;6.080;2022-12-29T13:06:24;4.60;;;1.37;;
9080;SDS011;13509;50.760;6.080;2022-12-29T13:11:43;8.77;;;1.70;;
9080;SDS011;13509;50.760;6.080;2022-12-29T13:14:24;3.63;;;1.13;;
9080;SDS011;13509;50.760;6.080;2022-12-29T13:16:55;4.30;;;1.30;;
9080;SDS011;13509;50.760;6.080;2022-12-29T13:19:27;5.90;;;1.23;;
9080;SDS011;13509;50.760;6.080;2022-12-29T13:22:01;3.33;;;1.10;;
9080;SDS011;13509;50.760;6.080;2022-12-29T13:24:35;3.87;;;1.20;;
9080;SDS011;13509;50.760;6.080;2022-12-29T13:27:05;4.20;;;1.40;;
9080;SDS011;13509;50.760;6.080;2022-12-29T13:29:40;5.10;;;1.23;;
9080;SDS011;13509;50.760;6.080;2022-12-29T13:32:18;5.80;;;1.30;;
9080;SDS011;13509;50.760;6.080;2022-12-29T13:34:53;6.30;;;1.57;;
9080;SDS011;13509;50.760;6.080;2022-12-29T13:37:24;6.33;;;1.40;;
9080;SDS011;13509;50.760;6.080;2022-12-29T13:39:54;5.03;;;1.40;;
9080;SDS011;13509;50.760;6.080;2022-12-29T13:42:24;5.60;;;1.83;;
9080;SDS011;13509;50.760;6.080;2022-12-29T13:44:56;5.53;;;1.40;;
9080;SDS011;13509;50.760;6.080;2022-12-29T13:47:27;5.60;;;1.27;;
9080;SDS011;13509;50.760;6.080;2022-12-29T13:49:56;7.40;;;1.43;;
9080;SDS011;13509;50.760;6.080;2022-12-29T13:52:28;3.57;;;1.37;;
9080;SDS011;13509;50.760;6.080;2022-12-29T13:55:01;9.37;;;1.70;;
9080;SDS011;13509;50.760;6.080;2022-12-29T13:57:35;4.43;;;1.80;;
9080;SDS011;13509;50.760;6.080;2022-12-29T14:00:11;3.13;;;1.07;;
9080;SDS011;13509;50.760;6.080;2022-12-29T14:02:42;3.00;;;1.20;;
9080;SDS011;13509;50.760;6.080;2022-12-29T14:05:26;4.90;;;1.30;;
9080;SDS011;13509;50.760;6.080;2022-12-29T14:07:56;1.77;;;1.17;;
9080;SDS011;13509;50.760;6.080;2022-12-29T14:10:26;5.27;;;1.10;;
9080;SDS011;13509;50.760;6.080;2022-12-29T14:12:59;6.40;;;1.70;;
9080;SDS011;13509;50.760;6.080;2022-12-29T14:15:29;6.83;;;1.50;;
9080;SDS011;13509;50.760;6.080;2022-12-29T14:20:51;5.63;;;1.10;;
9080;SDS011;13509;50.760;6.080;2022-12-29T14:23:27;5.57;;;1.00;;
9080;SDS011;13509;50.760;6.080;2022-12-29T14:25:57;5.67;;;1.40;;
9080;SDS011;13509;50.760;6.080;2022-12-29T14:28:27;3.83;;;1.40;;
9080;SDS011;13509;50.760;6.080;2022-12-29T14:30:57;6.57;;;1.60;;
9080;SDS011;13509;50.760;6.080;2022-12-29T14:33:27;9.17;;;1.40;;
9080;SDS011;13509;50.760;6.080;2022-12-29T14:35:55;4.20;;;1.37;;
9080;SDS011;13509;50.760;6.080;2022-12-29T14:38:27;7.53;;;1.47;;
9080;SDS011;13509;50.760;6.080;2022-12-29T14:43:53;4.63;;;1.60;;
9080;SDS011;13509;50.760;6.080;2022-12-29T14:46:23;8.00;;;2.17;;
9080;SDS011;13509;50.760;6.080;2022-12-29T14:48:55;6.47;;;1.93;;
9080;SDS011;13509;50.760;6.080;2022-12-29T14:51:29;5.43;;;1.73;;
9080;SDS011;13509;50.760;6.080;2022-12-29T14:53:58;8.33;;;2.23;;
9080;SDS011;13509;50.760;6.080;2022-12-29T14:56:27;6.83;;;2.10;;
9080;SDS011;13509;50.760;6.080;2022-12-29T14:58:57;8.83;;;1.80;;
9080;SDS011;13509;50.760;6.080;2022-12-29T15:01:32;9.80;;;2.23;;
9080;SDS011;13509;50.760;6.080;2022-12-29T15:04:05;10.67;;;2.00;;
9080;SDS011;13509;50.760;6.080;2022-12-29T15:06:40;8.90;;;1.60;;
9080;SDS011;13509;50.760;6.080;2022-12-29T15:09:12;7.87;;;2.07;;
9080;SDS011;13509;50.760;6.080;2022-12-29T15:11:45;7.13;;;1.80;;
9080;SDS011;13509;50.760;6.080;2022-12-29T15:14:29;6.17;;;1.57;;
9080;SDS011;13509;50.760;6.080;2022-12-29T15:16:59;9.50;;;1.73;;
9080;SDS011;13509;50.760;6.080;2022-12-29T15:19:27;8.97;;;2.13;;
9080;SDS011;13509;50.760;6.080;2022-12-29T15:21:56;5.13;;;1.93;;
9080;SDS011;13509;50.760;6.080;2022-12-29T15:24:24;5.77;;;1.80;;
9080;SDS011;13509;50.760;6.080;2022-12-29T15:26:53;8.67;;;1.40;;
9080;SDS011;13509;50.760;6.080;2022-12-29T15:29:28;8.83;;;1.80;;
9080;SDS011;13509;50.760;6.080;2022-12-29T15:31:58;9.40;;;1.80;;
9080;SDS011;13509;50.760;6.080;2022-12-29T15:34:29;4.70;;;1.50;;
9080;SDS011;13509;50.760;6.080;2022-12-29T15:36:57;6.90;;;1.80;;